sensor_id;sensor_type;location;lat;lon;timestamp;temperature;humidity
34766;DHT22;20984;43.508;1.504;2023-02-13T00:01:21;2.40;99.90
34766;DHT22;20984;43.508;1.504;2023-02-13T00:03:47;2.50;99.90
34766;DHT22;20984;43.508;1.504;2023-02-13T00:06:13;2.50;99.90
34766;DHT22;20984;43.508;1.504;2023-02-13T00:08:38;2.40;99.90
34766;DHT22;20984;43.508;1.504;2023-02-13T00:11:04;2.40;99.90
34766;DHT22;20984;43.508;1.504;2023-02-13T00:13:32;2.30;99.90
34766;DHT22;20984;43.508;1.504;2023-02-13T00:16:00;2.30;99.90
34766;DHT22;20984;43.508;1.504;2023-02-13T00:18:27;2.40;99.90
34766;DHT22;20984;43.508;1.504;2023-02-13T00:21:06;2.40;99.90
34766;DHT22;20984;43.508;1.504;2023-02-13T00:23:33;2.40;99.90
34766;DHT22;20984;43.508;1.504;2023-02-13T00:26:00;2.30;99.90
34766;DHT22;20984;43.508;1.504;2023-02-13T00:28:29;2.30;99.90
34766;DHT22;20984;43.508;1.504;2023-02-13T00:31:11;2.30;99.90
34766;DHT22;20984;43.508;1.504;2023-02-13T00:33:38;2.20;99.90
34766;DHT22;20984;43.508;1.504;2023-02-13T00:36:19;2.10;99.90
34766;DHT22;20984;43.508;1.504;2023-02-13T00:38:46;2.10;99.90
34766;DHT22;20984;43.508;1.504;2023-02-13T00:41:12;2.00;99.90
34766;DHT22;20984;43.508;1.504;2023-02-13T00:43:39;2.00;99.90
34766;DHT22;20984;43.508;1.504;2023-02-13T00:46:05;2.00;99.90
34766;DHT22;20984;43.508;1.504;2023-02-13T00:48:32;2.00;99.90
34766;DHT22;20984;43.508;1.504;2023-02-13T00:50:59;2.00;99.90
34766;DHT22;20984;43.508;1.504;2023-02-13T00:53:25;2.10;99.90
34766;DHT22;20984;43.508;1.504;2023-02-13T00:55:51;2.10;99.90
34766;DHT22;20984;43.508;1.504;2023-02-13T00:58:18;2.10;99.90
34766;DHT22;20984;43.508;1.504;2023-02-13T01:00:45;2.00;99.90
34766;DHT22;20984;43.508;1.504;2023-02-13T01:03:14;2.00;99.90
34766;DHT22;20984;43.508;1.504;2023-02-13T01:05:41;2.00;99.90
34766;DHT22;20984;43.508;1.504;2023-02-13T01:08:07;2.00;99.90
34766;DHT22;20984;43.508;1.504;2023-02-13T01:10:33;2.00;99.90
34766;DHT22;20984;43.508;1.504;2023-02-13T01:12:59;2.10;99.90
34766;DHT22;20984;43.508;1.504;2023-02-13T01:15:25;2.20;99.90
34766;DHT22;20984;43.508;1.504;2023-02-13T01:17:54;2.20;99.90
34766;DHT22;20984;43.508;1.504;2023-02-13T01:20:21;2.30;99.90
34766;DHT22;20984;43.508;1.504;2023-02-13T01:22:47;2.40;99.90
34766;DHT22;20984;43.508;1.504;2023-02-13T01:25:13;2.40;99.90
34766;DHT22;20984;43.508;1.504;2023-02-13T01:27:39;2.30;99.90
34766;DHT22;20984;43.508;1.504;2023-02-13T01:30:07;2.20;99.90
34766;DHT22;20984;43.508;1.504;2023-02-13T01:32:38;2.20;99.90
34766;DHT22;20984;43.508;1.504;2023-02-13T01:35:05;2.20;99.90
34766;DHT22;20984;43.508;1.504;2023-02-13T01:37:31;2.20;99.90
34766;DHT22;20984;43.508;1.504;2023-02-13T01:39:57;2.20;99.90
34766;DHT22;20984;43.508;1.504;2023-02-13T01:42:28;2.20;99.90
34766;DHT22;20984;43.508;1.504;2023-02-13T01:45:03;2.10;99.90
34766;DHT22;20984;43.508;1.504;2023-02-13T01:47:44;2.00;99.90
34766;DHT22;20984;43.508;1.504;2023-02-13T01:52:44;2.10;99.90
34766;DHT22;20984;43.508;1.504;2023-02-13T01:55:13;2.10;99.90
34766;DHT22;20984;43.508;1.504;2023-02-13T01:57:40;2.10;99.90
34766;DHT22;20984;43.508;1.504;2023-02-13T02:00:12;2.00;99.90
34766;DHT22;20984;43.508;1.504;2023-02-13T02:02:44;2.00;99.90
34766;DHT22;20984;43.508;1.504;2023-02-13T02:05:12;2.10;99.90
34766;DHT22;20984;43.508;1.504;2023-02-13T02:07:39;2.10;99.90
34766;DHT22;20984;43.508;1.504;2023-02-13T02:10:13;2.00;99.90
34766;DHT22;20984;43.508;1.504;2023-02-13T02:12:57;2.00;99.90
34766;DHT22;20984;43.508;1.504;2023-02-13T02:15:25;2.00;99.90
34766;DHT22;20984;43.508;1.504;2023-02-13T02:17:51;2.00;99.90
34766;DHT22;20984;43.508;1.504;2023-02-13T02:20:30;2.00;99.90
34766;DHT22;20984;43.508;1.504;2023-02-13T02:39:05;1.90;99.90
34766;DHT22;20984;43.508;1.504;2023-02-13T02:50:22;1.80;99.90
34766;DHT22;20984;43.508;1.504;2023-02-13T03:01:14;1.90;99.90
34766;DHT22;20984;43.508;1.504;2023-02-13T03:03:59;1.90;99.90
34766;DHT22;20984;43.508;1.504;2023-02-13T03:07:00;1.90;99.90
34766;DHT22;20984;43.508;1.504;2023-02-13T03:09:33;2.00;99.90
34766;DHT22;20984;43.508;1.504;2023-02-13T03:12:21;1.90;99.90
34766;DHT22;20984;43.508;1.504;2023-02-13T03:15:07;2.00;99.90
34766;DHT22;20984;43.508;1.504;2023-02-13T03:17:32;1.90;99.90
34766;DHT22;20984;43.508;1.504;2023-02-13T03:23:10;2.00;99.90
34766;DHT22;20984;43.508;1.504;2023-02-13T03:28:55;2.20;99.90
34766;DHT22;20984;43.508;1.504;2023-02-13T03:34:33;2.20;99.90
34766;DHT22;20984;43.508;1.504;2023-02-13T03:37:27;2.20;99.90
34766;DHT22;20984;43.508;1.504;2023-02-13T03:43:02;2.10;99.90
34766;DHT22;20984;43.508;1.504;2023-02-13T03:45:36;2.10;99.90
34766;DHT22;20984;43.508;1.504;2023-02-13T03:48:31;1.90;99.90
34766;DHT22;20984;43.508;1.504;2023-02-13T03:51:31;1.80;99.90
34766;DHT22;20984;43.508;1.504;2023-02-13T03:54:04;1.70;99.90
34766;DHT22;20984;43.508;1.504;2023-02-13T03:56:32;1.70;99.90
34766;DHT22;20984;43.508;1.504;2023-02-13T03:59:30;1.80;99.90
34766;DHT22;20984;43.508;1.504;2023-02-13T04:02:13;1.90;99.90
34766;DHT22;20984;43.508;1.504;2023-02-13T04:04:56;1.90;99.90
34766;DHT22;20984;43.508;1.504;2023-02-13T04:07:24;2.00;99.90
34766;DHT22;20984;43.508;1.504;2023-02-13T04:10:02;2.00;99.90
34766;DHT22;20984;43.508;1.504;2023-02-13T04:12:44;1.90;99.90
34766;DHT22;20984;43.508;1.504;2023-02-13T04:15:41;1.90;99.90
34766;DHT22;20984;43.508;1.504;2023-02-13T04:18:09;1.90;99.90
34766;DHT22;20984;43.508;1.504;2023-02-13T04:20:38;1.80;99.90
34766;DHT22;20984;43.508;1.504;2023-02-13T04:23:06;1.90;99.90
34766;DHT22;20984;43.508;1.504;2023-02-13T04:25:33;2.00;99.90
34766;DHT22;20984;43.508;1.504;2023-02-13T04:27:59;2.20;99.90
34766;DHT22;20984;43.508;1.504;2023-02-13T04:30:25;2.20;99.90
34766;DHT22;20984;43.508;1.504;2023-02-13T04:32:51;2.20;99.90
34766;DHT22;20984;43.508;1.504;2023-02-13T04:35:17;2.40;99.90
34766;DHT22;20984;43.508;1.504;2023-02-13T04:37:43;2.40;99.90
34766;DHT22;20984;43.508;1.504;2023-02-13T04:40:09;2.30;99.90
34766;DHT22;20984;43.508;1.504;2023-02-13T04:42:35;2.20;99.90
34766;DHT22;20984;43.508;1.504;2023-02-13T04:45:01;2.20;99.90
34766;DHT22;20984;43.508;1.504;2023-02-13T04:47:26;2.10;99.90
34766;DHT22;20984;43.508;1.504;2023-02-13T04:49:52;2.00;99.90
34766;DHT22;20984;43.508;1.504;2023-02-13T04:52:18;1.90;99.90
34766;DHT22;20984;43.508;1.504;2023-02-13T04:54:43;1.80;99.90
34766;DHT22;20984;43.508;1.504;2023-02-13T04:57:09;1.70;99.90
34766;DHT22;20984;43.508;1.504;2023-02-13T04:59:35;1.70;99.90
34766;DHT22;20984;43.508;1.504;2023-02-13T05:02:00;1.60;99.90
34766;DHT22;20984;43.508;1.504;2023-02-13T05:04:26;1.60;99.90
34766;DHT22;20984;43.508;1.504;2023-02-13T05:06:53;1.50;99.90
34766;DHT22;20984;43.508;1.504;2023-02-13T05:09:19;1.60;99.90
34766;DHT22;20984;43.508;1.504;2023-02-13T05:11:45;1.60;99.90
34766;DHT22;20984;43.508;1.504;2023-02-13T05:14:11;1.60;99.90
34766;DHT22;20984;43.508;1.504;2023-02-13T05:16:37;1.60;99.90
34766;DHT22;20984;43.508;1.504;2023-02-13T05:19:03;1.60;99.90
34766;DHT22;20984;43.508;1.504;2023-02-13T05:21:28;1.50;99.90
34766;DHT22;20984;43.508;1.504;2023-02-13T05:24:13;1.50;99.90
34766;DHT22;20984;43.508;1.504;2023-02-13T05:26:38;1.50;99.90
34766;DHT22;20984;43.508;1.504;2023-02-13T05:29:04;1.50;99.90
34766;DHT22;20984;43.508;1.504;2023-02-13T05:31:52;1.50;99.90
34766;DHT22;20984;43.508;1.504;2023-02-13T05:34:21;1.40;99.90
34766;DHT22;20984;43.508;1.504;2023-02-13T05:36:47;1.40;99.90
34766;DHT22;20984;43.508;1.504;2023-02-13T05:39:13;1.40;99.90
34766;DHT22;20984;43.508;1.504;2023-02-13T05:41:40;1.30;99.90
34766;DHT22;20984;43.508;1.504;2023-02-13T05:44:07;1.30;99.90
34766;DHT22;20984;43.508;1.504;2023-02-13T05:46:32;1.30;99.90
34766;DHT22;20984;43.508;1.504;2023-02-13T05:48:58;1.30;99.90
34766;DHT22;20984;43.508;1.504;2023-02-13T05:51:24;1.30;99.90
34766;DHT22;20984;43.508;1.504;2023-02-13T05:53:50;1.20;99.90
34766;DHT22;20984;43.508;1.504;2023-02-13T05:56:16;1.30;99.90
34766;DHT22;20984;43.508;1.504;2023-02-13T05:58:41;1.20;99.90
34766;DHT22;20984;43.508;1.504;2023-02-13T06:01:07;1.30;99.90
34766;DHT22;20984;43.508;1.504;2023-02-13T06:03:33;1.20;99.90
34766;DHT22;20984;43.508;1.504;2023-02-13T06:05:59;1.20;99.90
34766;DHT22;20984;43.508;1.504;2023-02-13T06:08:24;1.20;99.90
34766;DHT22;20984;43.508;1.504;2023-02-13T06:10:50;1.10;99.90
34766;DHT22;20984;43.508;1.504;2023-02-13T06:13:16;1.10;99.90
34766;DHT22;20984;43.508;1.504;2023-02-13T06:15:42;1.00;99.90
34766;DHT22;20984;43.508;1.504;2023-02-13T06:18:08;1.00;99.90
34766;DHT22;20984;43.508;1.504;2023-02-13T06:20:35;0.90;99.90
34766;DHT22;20984;43.508;1.504;2023-02-13T06:23:00;0.90;99.90
34766;DHT22;20984;43.508;1.504;2023-02-13T06:25:26;0.90;99.90
34766;DHT22;20984;43.508;1.504;2023-02-13T06:27:52;1.00;99.90
34766;DHT22;20984;43.508;1.504;2023-02-13T06:30:18;1.00;99.90
34766;DHT22;20984;43.508;1.504;2023-02-13T06:32:45;1.00;99.90
34766;DHT22;20984;43.508;1.504;2023-02-13T06:35:11;1.10;99.90
34766;DHT22;20984;43.508;1.504;2023-02-13T06:37:37;1.00;99.90
34766;DHT22;20984;43.508;1.504;2023-02-13T06:40:07;1.00;99.90
34766;DHT22;20984;43.508;1.504;2023-02-13T06:42:33;1.00;99.90
34766;DHT22;20984;43.508;1.504;2023-02-13T06:44:58;1.00;99.90
34766;DHT22;20984;43.508;1.504;2023-02-13T06:47:24;1.00;99.90
34766;DHT22;20984;43.508;1.504;2023-02-13T06:49:50;1.00;99.90
34766;DHT22;20984;43.508;1.504;2023-02-13T06:52:16;1.00;99.90
34766;DHT22;20984;43.508;1.504;2023-02-13T06:54:41;1.00;99.90
34766;DHT22;20984;43.508;1.504;2023-02-13T06:57:07;1.00;99.90
34766;DHT22;20984;43.508;1.504;2023-02-13T06:59:33;1.00;99.90
34766;DHT22;20984;43.508;1.504;2023-02-13T07:01:59;1.00;99.90
34766;DHT22;20984;43.508;1.504;2023-02-13T07:04:24;1.00;99.90
34766;DHT22;20984;43.508;1.504;2023-02-13T07:06:50;1.00;99.90
34766;DHT22;20984;43.508;1.504;2023-02-13T07:09:18;0.90;99.90
34766;DHT22;20984;43.508;1.504;2023-02-13T07:11:44;1.00;99.90
34766;DHT22;20984;43.508;1.504;2023-02-13T07:14:10;1.00;99.90
34766;DHT22;20984;43.508;1.504;2023-02-13T07:16:35;1.00;99.90
34766;DHT22;20984;43.508;1.504;2023-02-13T07:19:01;1.00;99.90
34766;DHT22;20984;43.508;1.504;2023-02-13T07:21:27;1.10;99.90
34766;DHT22;20984;43.508;1.504;2023-02-13T07:23:52;1.20;99.90
34766;DHT22;20984;43.508;1.504;2023-02-13T07:26:18;1.20;99.90
34766;DHT22;20984;43.508;1.504;2023-02-13T07:28:44;1.30;99.90
34766;DHT22;20984;43.508;1.504;2023-02-13T07:31:09;1.30;99.90
34766;DHT22;20984;43.508;1.504;2023-02-13T07:33:36;1.30;99.90
34766;DHT22;20984;43.508;1.504;2023-02-13T07:36:02;1.40;99.90
34766;DHT22;20984;43.508;1.504;2023-02-13T07:38:30;1.30;99.90
34766;DHT22;20984;43.508;1.504;2023-02-13T07:41:03;1.40;99.90
34766;DHT22;20984;43.508;1.504;2023-02-13T07:43:29;1.40;99.90
34766;DHT22;20984;43.508;1.504;2023-02-13T07:46:00;1.50;99.90
34766;DHT22;20984;43.508;1.504;2023-02-13T07:48:26;1.60;99.90
34766;DHT22;20984;43.508;1.504;2023-02-13T07:50:53;1.60;99.90
34766;DHT22;20984;43.508;1.504;2023-02-13T07:53:19;1.70;99.90
34766;DHT22;20984;43.508;1.504;2023-02-13T07:55:44;1.70;99.90
34766;DHT22;20984;43.508;1.504;2023-02-13T07:58:10;1.80;99.90
34766;DHT22;20984;43.508;1.504;2023-02-13T08:00:36;1.90;99.90
34766;DHT22;20984;43.508;1.504;2023-02-13T08:03:02;2.10;99.90
34766;DHT22;20984;43.508;1.504;2023-02-13T08:05:30;2.30;99.90
34766;DHT22;20984;43.508;1.504;2023-02-13T08:07:56;2.40;99.90
34766;DHT22;20984;43.508;1.504;2023-02-13T08:10:22;2.70;99.90
34766;DHT22;20984;43.508;1.504;2023-02-13T08:13:07;2.80;99.90
34766;DHT22;20984;43.508;1.504;2023-02-13T08:15:34;3.00;99.90
34766;DHT22;20984;43.508;1.504;2023-02-13T08:17:59;3.20;99.90
34766;DHT22;20984;43.508;1.504;2023-02-13T08:20:25;3.40;99.90
34766;DHT22;20984;43.508;1.504;2023-02-13T08:22:51;3.40;99.90
34766;DHT22;20984;43.508;1.504;2023-02-13T08:25:16;3.60;99.90
34766;DHT22;20984;43.508;1.504;2023-02-13T08:27:44;3.60;99.90
34766;DHT22;20984;43.508;1.504;2023-02-13T08:30:10;3.80;99.90
34766;DHT22;20984;43.508;1.504;2023-02-13T08:32:36;4.00;99.90
34766;DHT22;20984;43.508;1.504;2023-02-13T08:35:02;4.20;99.90
34766;DHT22;20984;43.508;1.504;2023-02-13T08:37:27;4.30;99.90
34766;DHT22;20984;43.508;1.504;2023-02-13T08:39:53;4.40;99.90
34766;DHT22;20984;43.508;1.504;2023-02-13T08:42:19;4.50;99.90
34766;DHT22;20984;43.508;1.504;2023-02-13T08:44:44;4.70;99.90
34766;DHT22;20984;43.508;1.504;2023-02-13T08:47:10;5.00;99.90
34766;DHT22;20984;43.508;1.504;2023-02-13T08:49:36;5.40;99.90
34766;DHT22;20984;43.508;1.504;2023-02-13T08:52:02;5.60;99.90
34766;DHT22;20984;43.508;1.504;2023-02-13T08:54:28;5.70;99.90
34766;DHT22;20984;43.508;1.504;2023-02-13T08:56:54;5.80;99.90
34766;DHT22;20984;43.508;1.504;2023-02-13T08:59:20;6.00;99.90
34766;DHT22;20984;43.508;1.504;2023-02-13T09:01:46;6.20;99.90
34766;DHT22;20984;43.508;1.504;2023-02-13T09:04:12;6.30;99.90
34766;DHT22;20984;43.508;1.504;2023-02-13T09:06:41;6.40;99.90
34766;DHT22;20984;43.508;1.504;2023-02-13T09:09:07;6.50;99.90
34766;DHT22;20984;43.508;1.504;2023-02-13T09:11:33;6.60;99.90
34766;DHT22;20984;43.508;1.504;2023-02-13T09:13:58;6.70;99.90
34766;DHT22;20984;43.508;1.504;2023-02-13T09:16:24;6.80;99.90
34766;DHT22;20984;43.508;1.504;2023-02-13T09:18:50;7.00;99.90
34766;DHT22;20984;43.508;1.504;2023-02-13T09:21:18;7.20;99.90
34766;DHT22;20984;43.508;1.504;2023-02-13T09:23:44;7.30;99.90
34766;DHT22;20984;43.508;1.504;2023-02-13T09:26:12;7.40;99.90
34766;DHT22;20984;43.508;1.504;2023-02-13T09:28:39;7.60;99.90
34766;DHT22;20984;43.508;1.504;2023-02-13T09:31:10;7.70;99.90
34766;DHT22;20984;43.508;1.504;2023-02-13T09:33:36;7.80;99.90
34766;DHT22;20984;43.508;1.504;2023-02-13T09:36:10;7.90;99.90
34766;DHT22;20984;43.508;1.504;2023-02-13T09:38:36;8.00;99.90
34766;DHT22;20984;43.508;1.504;2023-02-13T09:41:06;8.10;99.90
34766;DHT22;20984;43.508;1.504;2023-02-13T09:43:46;8.30;99.90
34766;DHT22;20984;43.508;1.504;2023-02-13T09:46:22;8.40;99.90
34766;DHT22;20984;43.508;1.504;2023-02-13T09:48:53;8.60;99.90
34766;DHT22;20984;43.508;1.504;2023-02-13T09:51:21;8.60;99.90
34766;DHT22;20984;43.508;1.504;2023-02-13T09:54:01;8.60;99.90
34766;DHT22;20984;43.508;1.504;2023-02-13T09:56:55;8.60;99.90
34766;DHT22;20984;43.508;1.504;2023-02-13T09:59:52;8.70;99.90
34766;DHT22;20984;43.508;1.504;2023-02-13T10:09:01;8.90;99.90
34766;DHT22;20984;43.508;1.504;2023-02-13T10:14:08;9.10;99.90
34766;DHT22;20984;43.508;1.504;2023-02-13T10:16:42;9.20;99.90
34766;DHT22;20984;43.508;1.504;2023-02-13T10:22:44;9.30;99.90
34766;DHT22;20984;43.508;1.504;2023-02-13T10:24:58;9.30;99.90
34766;DHT22;20984;43.508;1.504;2023-02-13T10:27:39;9.40;99.90
34766;DHT22;20984;43.508;1.504;2023-02-13T10:37:44;9.70;99.90
34766;DHT22;20984;43.508;1.504;2023-02-13T10:40:16;9.80;99.90
34766;DHT22;20984;43.508;1.504;2023-02-13T10:42:56;9.80;99.90
34766;DHT22;20984;43.508;1.504;2023-02-13T10:53:47;10.10;99.90
34766;DHT22;20984;43.508;1.504;2023-02-13T10:56:45;10.10;99.90
34766;DHT22;20984;43.508;1.504;2023-02-13T10:59:30;10.20;99.90
34766;DHT22;20984;43.508;1.504;2023-02-13T11:02:01;10.20;99.90
34766;DHT22;20984;43.508;1.504;2023-02-13T11:04:28;10.30;99.90
34766;DHT22;20984;43.508;1.504;2023-02-13T11:07:02;10.30;99.90
34766;DHT22;20984;43.508;1.504;2023-02-13T11:09:31;10.40;99.90
34766;DHT22;20984;43.508;1.504;2023-02-13T11:15:24;10.50;99.90
34766;DHT22;20984;43.508;1.504;2023-02-13T11:17:52;10.60;99.90
34766;DHT22;20984;43.508;1.504;2023-02-13T11:22:51;10.60;99.90
34766;DHT22;20984;43.508;1.504;2023-02-13T11:25:24;10.70;99.90
34766;DHT22;20984;43.508;1.504;2023-02-13T11:27:53;10.70;99.90
34766;DHT22;20984;43.508;1.504;2023-02-13T11:30:33;10.80;99.90
34766;DHT22;20984;43.508;1.504;2023-02-13T11:35:35;10.90;99.90
34766;DHT22;20984;43.508;1.504;2023-02-13T11:41:09;11.00;99.90
34766;DHT22;20984;43.508;1.504;2023-02-13T11:43:49;11.00;99.90
34766;DHT22;20984;43.508;1.504;2023-02-13T11:46:18;11.00;99.90
34766;DHT22;20984;43.508;1.504;2023-02-13T11:51:34;11.20;99.90
34766;DHT22;20984;43.508;1.504;2023-02-13T11:54:00;11.20;99.90
34766;DHT22;20984;43.508;1.504;2023-02-13T11:56:26;11.20;99.90
34766;DHT22;20984;43.508;1.504;2023-02-13T11:59:01;11.20;99.90
34766;DHT22;20984;43.508;1.504;2023-02-13T12:01:28;11.20;99.90
34766;DHT22;20984;43.508;1.504;2023-02-13T12:06:32;11.30;99.90
34766;DHT22;20984;43.508;1.504;2023-02-13T12:09:10;11.30;99.90
34766;DHT22;20984;43.508;1.504;2023-02-13T12:11:51;11.30;99.90
34766;DHT22;20984;43.508;1.504;2023-02-13T12:14:24;11.30;99.90
34766;DHT22;20984;43.508;1.504;2023-02-13T12:17:01;11.40;99.90
34766;DHT22;20984;43.508;1.504;2023-02-13T12:19:45;11.40;99.90
34766;DHT22;20984;43.508;1.504;2023-02-13T12:22:17;11.40;99.90
34766;DHT22;20984;43.508;1.504;2023-02-13T12:27:23;11.40;99.90
34766;DHT22;20984;43.508;1.504;2023-02-13T12:41:42;11.60;99.90
34766;DHT22;20984;43.508;1.504;2023-02-13T12:44:50;11.60;99.90
34766;DHT22;20984;43.508;1.504;2023-02-13T12:47:32;11.70;99.90
34766;DHT22;20984;43.508;1.504;2023-02-13T12:50:22;11.70;99.90
34766;DHT22;20984;43.508;1.504;2023-02-13T13:07:36;12.00;99.90
34766;DHT22;20984;43.508;1.504;2023-02-13T13:12:12;11.90;99.90
34766;DHT22;20984;43.508;1.504;2023-02-13T13:23:14;12.20;99.90
34766;DHT22;20984;43.508;1.504;2023-02-13T13:26:14;12.30;99.90
34766;DHT22;20984;43.508;1.504;2023-02-13T13:28:48;12.20;99.90
34766;DHT22;20984;43.508;1.504;2023-02-13T13:31:15;12.30;99.90
34766;DHT22;20984;43.508;1.504;2023-02-13T13:33:43;12.20;99.90
34766;DHT22;20984;43.508;1.504;2023-02-13T13:39:11;12.20;99.90
34766;DHT22;20984;43.508;1.504;2023-02-13T13:41:42;12.30;99.90
34766;DHT22;20984;43.508;1.504;2023-02-13T13:49:48;12.40;99.90
34766;DHT22;20984;43.508;1.504;2023-02-13T13:52:24;12.40;99.90
34766;DHT22;20984;43.508;1.504;2023-02-13T13:54:51;12.30;99.90
34766;DHT22;20984;43.508;1.504;2023-02-13T13:57:25;12.40;99.90
34766;DHT22;20984;43.508;1.504;2023-02-13T14:05:16;12.30;99.90
34766;DHT22;20984;43.508;1.504;2023-02-13T14:07:43;12.30;99.90
34766;DHT22;20984;43.508;1.504;2023-02-13T14:23:43;12.30;99.90
34766;DHT22;20984;43.508;1.504;2023-02-13T14:33:57;12.20;99.90
34766;DHT22;20984;43.508;1.504;2023-02-13T14:36:28;12.30;99.90
34766;DHT22;20984;43.508;1.504;2023-02-13T14:39:06;12.30;99.90
34766;DHT22;20984;43.508;1.504;2023-02-13T14:49:49;12.40;99.90
34766;DHT22;20984;43.508;1.504;2023-02-13T14:52:19;12.50;99.90
34766;DHT22;20984;43.508;1.504;2023-02-13T14:54:58;12.50;99.90
34766;DHT22;20984;43.508;1.504;2023-02-13T14:57:35;12.40;99.90
34766;DHT22;20984;43.508;1.504;2023-02-13T15:00:19;12.30;99.90
34766;DHT22;20984;43.508;1.504;2023-02-13T15:02:52;12.30;99.90
34766;DHT22;20984;43.508;1.504;2023-02-13T15:05:18;12.20;99.90
34766;DHT22;20984;43.508;1.504;2023-02-13T15:13:11;12.10;99.90
34766;DHT22;20984;43.508;1.504;2023-02-13T15:15:37;12.10;99.90
34766;DHT22;20984;43.508;1.504;2023-02-13T15:18:08;12.10;99.90
34766;DHT22;20984;43.508;1.504;2023-02-13T15:20:37;12.10;99.90
34766;DHT22;20984;43.508;1.504;2023-02-13T15:23:05;12.10;99.90
34766;DHT22;20984;43.508;1.504;2023-02-13T15:25:39;12.10;99.90
34766;DHT22;20984;43.508;1.504;2023-02-13T15:28:07;12.00;99.90
34766;DHT22;20984;43.508;1.504;2023-02-13T15:30:34;12.00;99.90
34766;DHT22;20984;43.508;1.504;2023-02-13T15:33:16;11.90;99.90
34766;DHT22;20984;43.508;1.504;2023-02-13T15:35:42;11.80;99.90
34766;DHT22;20984;43.508;1.504;2023-02-13T15:38:29;11.80;99.90
34766;DHT22;20984;43.508;1.504;2023-02-13T15:41:03;11.70;99.90
34766;DHT22;20984;43.508;1.504;2023-02-13T15:43:37;11.60;99.90
34766;DHT22;20984;43.508;1.504;2023-02-13T15:46:07;11.50;99.90
34766;DHT22;20984;43.508;1.504;2023-02-13T15:48:42;11.50;99.90
34766;DHT22;20984;43.508;1.504;2023-02-13T15:51:08;11.40;99.90
34766;DHT22;20984;43.508;1.504;2023-02-13T15:53:34;11.40;99.90
34766;DHT22;20984;43.508;1.504;2023-02-13T15:56:03;11.40;99.90
34766;DHT22;20984;43.508;1.504;2023-02-13T15:58:33;11.30;99.90
34766;DHT22;20984;43.508;1.504;2023-02-13T16:01:05;11.20;99.90
34766;DHT22;20984;43.508;1.504;2023-02-13T16:03:32;11.20;99.90
34766;DHT22;20984;43.508;1.504;2023-02-13T16:05:58;11.10;99.90
34766;DHT22;20984;43.508;1.504;2023-02-13T16:08:31;11.00;99.90
34766;DHT22;20984;43.508;1.504;2023-02-13T16:14:09;11.00;99.90
34766;DHT22;20984;43.508;1.504;2023-02-13T16:27:47;10.80;99.90
34766;DHT22;20984;43.508;1.504;2023-02-13T16:38:29;10.60;99.90
34766;DHT22;20984;43.508;1.504;2023-02-13T16:40:58;10.50;99.90
34766;DHT22;20984;43.508;1.504;2023-02-13T16:43:45;10.40;99.90
34766;DHT22;20984;43.508;1.504;2023-02-13T16:48:41;10.30;99.90
34766;DHT22;20984;43.508;1.504;2023-02-13T16:51:08;10.20;99.90
34766;DHT22;20984;43.508;1.504;2023-02-13T16:53:34;10.10;99.90
34766;DHT22;20984;43.508;1.504;2023-02-13T16:56:03;10.00;99.90
34766;DHT22;20984;43.508;1.504;2023-02-13T16:58:30;10.00;99.90
34766;DHT22;20984;43.508;1.504;2023-02-13T17:00:56;9.90;99.90
34766;DHT22;20984;43.508;1.504;2023-02-13T17:03:22;9.90;99.90
34766;DHT22;20984;43.508;1.504;2023-02-13T17:05:47;9.90;99.90
34766;DHT22;20984;43.508;1.504;2023-02-13T17:08:13;9.80;99.90
34766;DHT22;20984;43.508;1.504;2023-02-13T17:10:39;9.80;99.90
34766;DHT22;20984;43.508;1.504;2023-02-13T17:15:35;9.60;99.90
34766;DHT22;20984;43.508;1.504;2023-02-13T17:18:01;9.50;99.90
34766;DHT22;20984;43.508;1.504;2023-02-13T17:20:29;9.40;99.90
34766;DHT22;20984;43.508;1.504;2023-02-13T17:22:57;9.40;99.90
34766;DHT22;20984;43.508;1.504;2023-02-13T17:25:28;9.30;99.90
34766;DHT22;20984;43.508;1.504;2023-02-13T17:27:57;9.30;99.90
34766;DHT22;20984;43.508;1.504;2023-02-13T17:30:26;9.20;99.90
34766;DHT22;20984;43.508;1.504;2023-02-13T17:32:56;9.20;99.90
34766;DHT22;20984;43.508;1.504;2023-02-13T17:35:22;9.10;99.90
34766;DHT22;20984;43.508;1.504;2023-02-13T17:37:48;9.00;99.90
34766;DHT22;20984;43.508;1.504;2023-02-13T17:40:19;8.90;99.90
34766;DHT22;20984;43.508;1.504;2023-02-13T17:42:45;8.80;99.90
34766;DHT22;20984;43.508;1.504;2023-02-13T17:45:14;8.70;99.90
34766;DHT22;20984;43.508;1.504;2023-02-13T17:47:40;8.70;99.90
34766;DHT22;20984;43.508;1.504;2023-02-13T17:50:06;8.60;99.90
34766;DHT22;20984;43.508;1.504;2023-02-13T17:52:32;8.60;99.90
34766;DHT22;20984;43.508;1.504;2023-02-13T17:54:58;8.60;99.90
34766;DHT22;20984;43.508;1.504;2023-02-13T17:57:24;8.50;99.90
34766;DHT22;20984;43.508;1.504;2023-02-13T17:59:50;8.50;99.90
34766;DHT22;20984;43.508;1.504;2023-02-13T18:02:17;8.40;99.90
34766;DHT22;20984;43.508;1.504;2023-02-13T18:04:43;8.40;99.90
34766;DHT22;20984;43.508;1.504;2023-02-13T18:07:11;8.30;99.90
34766;DHT22;20984;43.508;1.504;2023-02-13T18:09:37;8.30;99.90
34766;DHT22;20984;43.508;1.504;2023-02-13T18:12:05;8.30;99.90
34766;DHT22;20984;43.508;1.504;2023-02-13T18:14:32;8.30;99.90
34766;DHT22;20984;43.508;1.504;2023-02-13T18:16:58;8.20;99.90
34766;DHT22;20984;43.508;1.504;2023-02-13T18:19:25;8.10;99.90
34766;DHT22;20984;43.508;1.504;2023-02-13T18:21:50;8.10;99.90
34766;DHT22;20984;43.508;1.504;2023-02-13T18:24:16;8.10;99.90
34766;DHT22;20984;43.508;1.504;2023-02-13T18:26:42;8.20;99.90
34766;DHT22;20984;43.508;1.504;2023-02-13T18:29:07;8.10;99.90
34766;DHT22;20984;43.508;1.504;2023-02-13T18:31:33;8.10;99.90
34766;DHT22;20984;43.508;1.504;2023-02-13T18:33:58;8.10;99.90
34766;DHT22;20984;43.508;1.504;2023-02-13T18:36:24;8.00;99.90
34766;DHT22;20984;43.508;1.504;2023-02-13T18:38:51;7.90;99.90
34766;DHT22;20984;43.508;1.504;2023-02-13T18:41:17;7.90;99.90
34766;DHT22;20984;43.508;1.504;2023-02-13T18:43:43;7.80;99.90
34766;DHT22;20984;43.508;1.504;2023-02-13T18:46:09;7.80;99.90
34766;DHT22;20984;43.508;1.504;2023-02-13T18:48:35;7.80;99.90
34766;DHT22;20984;43.508;1.504;2023-02-13T18:51:01;7.80;99.90
34766;DHT22;20984;43.508;1.504;2023-02-13T18:53:27;7.80;99.90
34766;DHT22;20984;43.508;1.504;2023-02-13T18:56:05;7.80;99.90
34766;DHT22;20984;43.508;1.504;2023-02-13T18:58:31;7.70;99.90
34766;DHT22;20984;43.508;1.504;2023-02-13T19:01:04;7.70;99.90
34766;DHT22;20984;43.508;1.504;2023-02-13T19:03:30;7.70;99.90
34766;DHT22;20984;43.508;1.504;2023-02-13T19:05:56;7.60;99.90
34766;DHT22;20984;43.508;1.504;2023-02-13T19:08:23;7.60;99.90
34766;DHT22;20984;43.508;1.504;2023-02-13T19:10:48;7.50;99.90
34766;DHT22;20984;43.508;1.504;2023-02-13T19:13:14;7.50;99.90
34766;DHT22;20984;43.508;1.504;2023-02-13T19:15:40;7.40;99.90
34766;DHT22;20984;43.508;1.504;2023-02-13T19:18:05;7.30;99.90
34766;DHT22;20984;43.508;1.504;2023-02-13T19:20:31;7.20;99.90
34766;DHT22;20984;43.508;1.504;2023-02-13T19:22:57;7.20;99.90
34766;DHT22;20984;43.508;1.504;2023-02-13T19:25:23;7.10;99.90
34766;DHT22;20984;43.508;1.504;2023-02-13T19:27:48;7.10;99.90